Time,TemperatureF,DewpointF,PressureIn,WindDirection,WindDirectionDegrees,WindSpeedMPH,WindSpeedGustMPH,Humidity,HourlyPrecipIn,Conditions,Clouds,dailyrainin,SolarRadiationWatts/m^2,SoftwareType,DateUTC
2013-02-03 00:00:00,37.1,35.0,30.02,West,267,0.0,1.0,92,0.00,,,0.00,1649.00,VWS V14.01,2013-02-03 05:00:00,
2013-02-03 00:06:00,37.1,35.0,30.03,West,267,1.0,2.0,92,0.00,,,0.00,1647.00,VWS V14.01,2013-02-03 05:06:00,
2013-02-03 00:11:00,37.1,35.0,30.02,West,267,1.0,2.0,92,0.00,,,0.00,1649.00,VWS V14.01,2013-02-03 05:11:00,
2013-02-03 00:16:00,37.1,35.0,30.02,West,267,0.0,1.0,92,0.00,,,0.00,1649.00,VWS V14.01,2013-02-03 05:16:00,
2013-02-03 00:21:00,37.1,35.0,30.02,West,267,1.0,2.0,92,0.10,,,0.10,1647.00,VWS V14.01,2013-02-03 05:21:00,
2013-02-03 00:26:00,37.1,35.0,30.02,West,267,0.0,0.0,92,0.10,,,0.10,1649.00,VWS V14.01,2013-02-03 05:26:00,
2013-02-03 00:31:00,37.2,35.4,30.02,West,267,0.0,1.0,93,0.10,,,0.10,1647.00,VWS V14.01,2013-02-03 05:31:00,
2013-02-03 00:36:00,37.2,35.4,30.01,West,267,0.0,0.0,93,0.10,,,0.10,1647.00,VWS V14.01,2013-02-03 05:36:00,
2013-02-03 00:41:00,37.2,35.4,30.01,West,267,0.0,0.0,93,0.10,,,0.10,1649.00,VWS V14.01,2013-02-03 05:41:00,
2013-02-03 00:46:00,37.2,35.4,30.01,West,267,0.0,0.0,93,0.10,,,0.10,1647.00,VWS V14.01,2013-02-03 05:46:00,
2013-02-03 00:51:00,37.2,35.4,30.01,West,267,0.0,0.0,93,0.10,,,0.10,1647.00,VWS V14.01,2013-02-03 05:51:00,
2013-02-03 00:56:00,37.2,35.4,30.00,West,267,0.0,0.0,93,0.10,,,0.10,1647.00,VWS V14.01,2013-02-03 05:56:00,
2013-02-03 01:01:00,37.2,35.4,30.00,West,267,0.0,0.0,93,0.10,,,0.10,1645.00,VWS V14.01,2013-02-03 06:01:00,
2013-02-03 01:06:00,37.2,35.4,30.00,West,267,0.0,2.0,93,0.10,,,0.10,1647.00,VWS V14.01,2013-02-03 06:06:00,
2013-02-03 01:10:00,37.2,35.4,29.99,WSW,255,1.0,4.0,93,0.10,,,0.10,1649.00,VWS V14.01,2013-02-03 06:10:00,
2013-02-03 01:15:00,37.1,35.3,29.99,WSW,238,0.0,3.0,93,0.10,,,0.10,1649.00,VWS V14.01,2013-02-03 06:15:00,
2013-02-03 01:20:00,37.1,35.3,29.99,WSW,238,0.0,1.0,93,0.00,,,0.10,1649.00,VWS V14.01,2013-02-03 06:20:00,
2013-02-03 01:25:00,37.0,35.2,29.99,WSW,246,2.0,3.0,93,0.00,,,0.10,1645.00,VWS V14.01,2013-02-03 06:25:00,
2013-02-03 01:30:00,36.9,35.1,29.99,West,270,0.0,0.0,93,0.00,,,0.10,1644.00,VWS V14.01,2013-02-03 06:30:00,
2013-02-03 01:35:00,36.9,35.1,29.99,West,270,0.0,0.0,93,0.00,,,0.10,1644.00,VWS V14.01,2013-02-03 06:35:00,
2013-02-03 01:40:00,36.9,35.1,29.98,West,270,0.0,0.0,93,0.00,,,0.10,1642.00,VWS V14.01,2013-02-03 06:40:00,
2013-02-03 01:45:00,36.8,35.0,29.98,West,270,0.0,0.0,93,0.00,,,0.10,1642.00,VWS V14.01,2013-02-03 06:45:00,
2013-02-03 01:50:00,36.6,34.5,29.98,West,270,2.0,2.0,92,0.00,,,0.10,1638.00,VWS V14.01,2013-02-03 06:50:00,
2013-02-03 01:55:00,36.6,34.8,29.99,West,270,0.0,1.0,93,0.00,,,0.10,1638.00,VWS V14.01,2013-02-03 06:55:00,
2013-02-03 02:00:00,36.5,34.7,29.98,West,270,0.0,0.0,93,0.00,,,0.10,1640.00,VWS V14.01,2013-02-03 07:00:00,
2013-02-03 02:05:00,36.5,34.7,29.98,West,270,0.0,0.0,93,0.00,,,0.10,1638.00,VWS V14.01,2013-02-03 07:05:00,
2013-02-03 02:10:00,36.4,34.6,29.98,West,270,0.0,1.0,93,0.00,,,0.10,1640.00,VWS V14.01,2013-02-03 07:10:00,
2013-02-03 02:15:00,36.4,34.6,29.98,West,270,0.0,0.0,93,0.00,,,0.10,1638.00,VWS V14.01,2013-02-03 07:15:00,
2013-02-03 02:20:00,36.2,34.4,29.98,West,270,0.0,0.0,93,0.00,,,0.10,1637.00,VWS V14.01,2013-02-03 07:20:00,
2013-02-03 02:25:00,36.1,34.3,29.97,West,270,0.0,0.0,93,0.00,,,0.10,1635.00,VWS V14.01,2013-02-03 07:25:00,
2013-02-03 02:30:00,35.9,34.1,29.97,West,270,0.0,0.0,93,0.00,,,0.10,1631.00,VWS V14.01,2013-02-03 07:30:00,
2013-02-03 02:35:00,35.7,33.9,29.97,West,270,0.0,0.0,93,0.00,,,0.10,1628.00,VWS V14.01,2013-02-03 07:35:00,
2013-02-03 02:40:00,35.5,33.7,29.97,West,270,0.0,0.0,93,0.00,,,0.10,1628.00,VWS V14.01,2013-02-03 07:40:00,
2013-02-03 02:45:00,35.5,33.7,29.96,West,270,0.0,0.0,93,0.00,,,0.10,1628.00,VWS V14.01,2013-02-03 07:45:00,
2013-02-03 02:50:00,35.5,33.7,29.96,West,270,0.0,0.0,93,0.00,,,0.10,1628.00,VWS V14.01,2013-02-03 07:50:00,
2013-02-03 02:55:00,35.4,33.6,29.96,West,270,0.0,0.0,93,0.00,,,0.10,1626.00,VWS V14.01,2013-02-03 07:55:00,
2013-02-03 03:00:00,35.2,33.4,29.96,West,270,0.0,0.0,93,0.00,,,0.10,1628.00,VWS V14.01,2013-02-03 08:00:00,
2013-02-03 03:05:00,35.1,33.3,29.96,West,270,0.0,1.0,93,0.00,,,0.10,1626.00,VWS V14.01,2013-02-03 08:05:00,
2013-02-03 03:10:00,35.0,33.5,29.95,West,270,0.0,0.0,94,0.00,,,0.10,1628.00,VWS V14.01,2013-02-03 08:10:00,
2013-02-03 03:15:00,34.9,33.3,29.95,West,270,0.0,0.0,94,0.00,,,0.10,1628.00,VWS V14.01,2013-02-03 08:15:00,
2013-02-03 03:20:00,34.9,33.3,29.95,West,270,0.0,0.0,94,0.00,,,0.10,1628.00,VWS V14.01,2013-02-03 08:20:00,
2013-02-03 03:25:00,34.9,33.3,29.95,West,270,1.0,2.0,94,0.00,,,0.10,1628.00,VWS V14.01,2013-02-03 08:25:00,
2013-02-03 03:30:00,34.9,33.3,29.94,West,270,0.0,1.0,94,0.00,,,0.10,1629.00,VWS V14.01,2013-02-03 08:30:00,
2013-02-03 03:35:00,35.0,33.5,29.94,West,270,0.0,0.0,94,0.00,,,0.10,1629.00,VWS V14.01,2013-02-03 08:35:00,
2013-02-03 03:40:00,35.0,33.5,29.94,West,270,0.0,1.0,94,0.00,,,0.10,1629.00,VWS V14.01,2013-02-03 08:40:00,
2013-02-03 03:45:00,35.0,33.7,29.93,West,270,0.0,0.0,95,0.00,,,0.10,1629.00,VWS V14.01,2013-02-03 08:45:00,
2013-02-03 03:50:00,35.1,33.8,29.93,West,270,0.0,0.0,95,0.00,,,0.10,1629.00,VWS V14.01,2013-02-03 08:50:00,
2013-02-03 03:55:00,35.2,33.9,29.93,West,270,0.0,0.0,95,0.00,,,0.10,1631.00,VWS V14.01,2013-02-03 08:55:00,
2013-02-03 04:00:00,35.2,33.9,29.93,West,270,0.0,0.0,95,0.00,,,0.10,1631.00,VWS V14.01,2013-02-03 09:00:00,
2013-02-03 04:05:00,35.2,33.9,29.93,West,270,0.0,0.0,95,0.00,,,0.10,1631.00,VWS V14.01,2013-02-03 09:05:00,
2013-02-03 04:10:00,35.3,34.0,29.93,West,270,0.0,0.0,95,0.00,,,0.10,1631.00,VWS V14.01,2013-02-03 09:10:00,
2013-02-03 04:15:00,35.3,34.0,29.93,West,270,0.0,0.0,95,0.00,,,0.10,1631.00,VWS V14.01,2013-02-03 09:15:00,
2013-02-03 04:20:00,35.3,34.0,29.93,West,270,0.0,1.0,95,0.00,,,0.10,1631.00,VWS V14.01,2013-02-03 09:20:00,
2013-02-03 04:25:00,35.4,34.1,29.93,West,270,0.0,1.0,95,0.00,,,0.10,1631.00,VWS V14.01,2013-02-03 09:25:00,
2013-02-03 04:30:00,35.5,34.2,29.93,WSW,254,1.0,3.0,95,0.00,,,0.10,1633.00,VWS V14.01,2013-02-03 09:30:00,
2013-02-03 04:35:00,35.5,34.2,29.93,WSW,254,0.0,2.0,95,0.00,,,0.10,1633.00,VWS V14.01,2013-02-03 09:35:00,
2013-02-03 04:40:00,35.5,34.2,29.93,West,275,1.0,2.0,95,0.00,,,0.10,1633.00,VWS V14.01,2013-02-03 09:40:00,
2013-02-03 04:45:00,35.6,34.3,29.93,West,263,0.0,2.0,95,0.00,,,0.10,1631.00,VWS V14.01,2013-02-03 09:45:00,
2013-02-03 04:50:00,35.6,34.3,29.93,West,263,0.0,1.0,95,0.00,,,0.10,1633.00,VWS V14.01,2013-02-03 09:50:00,
2013-02-03 04:55:00,35.6,34.3,29.93,West,272,0.0,0.0,95,0.00,,,0.10,1633.00,VWS V14.01,2013-02-03 09:55:00,
2013-02-03 05:00:00,35.6,34.3,29.92,West,269,1.0,2.0,95,0.00,,,0.10,1635.00,VWS V14.01,2013-02-03 10:00:00,
2013-02-03 05:05:00,35.6,34.3,29.92,West,269,0.0,0.0,95,0.00,,,0.10,1633.00,VWS V14.01,2013-02-03 10:05:00,
2013-02-03 05:10:00,35.6,34.3,29.92,West,269,0.0,0.0,95,0.00,,,0.10,1631.00,VWS V14.01,2013-02-03 10:10:00,
2013-02-03 05:15:00,35.6,34.3,29.92,West,269,0.0,0.0,95,0.00,,,0.10,1631.00,VWS V14.01,2013-02-03 10:15:00,
2013-02-03 05:20:00,35.5,34.2,29.92,West,269,0.0,1.0,95,0.00,,,0.10,1633.00,VWS V14.01,2013-02-03 10:20:00,
2013-02-03 05:25:00,35.5,34.2,29.92,West,269,0.0,1.0,95,0.00,,,0.10,1633.00,VWS V14.01,2013-02-03 10:25:00,
2013-02-03 05:30:00,35.5,34.2,29.92,WSW,257,2.0,2.0,95,0.00,,,0.10,1631.00,VWS V14.01,2013-02-03 10:30:00,
2013-02-03 05:35:00,35.5,34.2,29.92,WSW,246,1.0,4.0,95,0.00,,,0.10,1633.00,VWS V14.01,2013-02-03 10:35:00,
2013-02-03 05:40:00,35.5,34.0,29.92,West,265,2.0,4.0,94,0.00,,,0.10,1633.00,VWS V14.01,2013-02-03 10:40:00,
2013-02-03 05:45:00,35.6,34.0,29.92,West,261,1.0,3.0,94,0.00,,,0.10,1633.00,VWS V14.01,2013-02-03 10:45:00,
2013-02-03 05:50:00,35.6,34.0,29.93,WSW,248,2.0,3.0,94,0.00,,,0.10,1635.00,VWS V14.01,2013-02-03 10:50:00,
2013-02-03 05:55:00,35.6,34.0,29.92,WSW,241,0.0,2.0,94,0.00,,,0.10,1635.00,VWS V14.01,2013-02-03 10:55:00,
2013-02-03 06:00:00,35.6,34.0,29.93,WSW,249,2.0,2.0,94,0.00,,,0.10,1633.00,VWS V14.01,2013-02-03 11:00:00,
2013-02-03 06:05:00,35.6,34.0,29.93,WSW,249,2.0,3.0,94,0.00,,,0.10,1635.00,VWS V14.01,2013-02-03 11:05:00,
2013-02-03 06:10:00,35.5,34.0,29.93,WSW,252,0.0,3.0,94,0.00,,,0.10,1633.00,VWS V14.01,2013-02-03 11:10:00,
2013-02-03 06:15:00,35.5,34.0,29.93,WSW,252,3.0,3.0,94,0.00,,,0.10,1633.00,VWS V14.01,2013-02-03 11:15:00,
2013-02-03 06:20:00,35.5,34.0,29.93,West,281,1.0,1.0,94,0.00,,,0.10,1633.00,VWS V14.01,2013-02-03 11:20:00,
2013-02-03 06:25:00,35.3,33.8,29.93,West,281,0.0,0.0,94,0.00,,,0.10,1633.00,VWS V14.01,2013-02-03 11:25:00,
2013-02-03 06:30:00,35.3,33.8,29.93,West,259,1.0,3.0,94,0.00,,,0.10,1631.00,VWS V14.01,2013-02-03 11:30:00,
2013-02-03 06:35:00,35.2,33.4,29.93,West,265,1.0,1.0,93,0.00,,,0.10,1628.00,VWS V14.01,2013-02-03 11:35:00,
2013-02-03 06:40:00,35.0,33.2,29.93,West,265,3.0,3.0,93,0.00,,,0.10,1628.00,VWS V14.01,2013-02-03 11:40:00,
2013-02-03 06:45:00,34.9,33.1,29.93,WSW,244,0.0,1.0,93,0.00,,,0.10,1622.00,VWS V14.01,2013-02-03 11:45:00,
2013-02-03 06:50:00,34.8,33.2,29.93,WSW,244,1.0,3.0,94,0.00,,,0.10,1617.00,VWS V14.01,2013-02-03 11:50:00,
2013-02-03 06:55:00,34.7,33.2,29.94,WSW,244,2.0,2.0,94,0.00,,,0.10,1610.00,VWS V14.01,2013-02-03 11:55:00,
2013-02-03 07:00:00,34.5,32.7,29.94,WSW,244,1.0,2.0,93,0.00,,,0.10,1600.00,VWS V14.01,2013-02-03 12:00:00,
2013-02-03 07:05:00,34.3,32.5,29.93,West,266,1.0,1.0,93,0.00,,,0.10,1591.00,VWS V14.01,2013-02-03 12:05:00,
2013-02-03 07:10:00,34.2,32.7,29.94,West,268,0.0,0.0,94,0.00,,,0.10,1584.00,VWS V14.01,2013-02-03 12:10:00,
2013-02-03 07:15:00,34.1,32.3,29.94,West,266,0.0,0.0,93,0.00,,,0.10,1573.00,VWS V14.01,2013-02-03 12:15:00,
2013-02-03 07:20:00,33.8,32.0,29.94,West,266,0.0,0.0,93,0.00,,,0.10,1564.00,VWS V14.01,2013-02-03 12:20:00,
2013-02-03 07:25:00,33.6,31.8,29.94,West,266,0.0,0.0,93,0.00,,,0.10,1557.00,VWS V14.01,2013-02-03 12:25:00,
2013-02-03 07:30:00,33.4,31.6,29.94,West,266,0.0,0.0,93,0.00,,,0.10,1552.00,VWS V14.01,2013-02-03 12:30:00,
2013-02-03 07:35:00,33.2,31.4,29.94,West,266,0.0,2.0,93,0.00,,,0.10,1545.00,VWS V14.01,2013-02-03 12:35:00,
2013-02-03 07:40:00,33.1,31.6,29.93,West,266,0.0,0.0,94,0.00,,,0.10,1531.00,VWS V14.01,2013-02-03 12:40:00,
2013-02-03 07:45:00,33.0,31.5,29.94,West,266,0.0,0.0,94,0.00,,,0.10,1528.00,VWS V14.01,2013-02-03 12:45:00,
2013-02-03 07:50:00,33.1,31.6,29.94,West,266,0.0,0.0,94,0.00,,,0.10,1521.00,VWS V14.01,2013-02-03 12:50:00,
2013-02-03 07:55:00,33.1,31.6,29.94,West,266,0.0,0.0,94,0.00,,,0.10,1524.00,VWS V14.01,2013-02-03 12:55:00,
2013-02-03 08:01:00,33.1,31.6,29.94,West,266,0.0,0.0,94,0.00,,,0.10,1519.00,VWS V14.01,2013-02-03 13:01:00,
2013-02-03 08:06:00,33.1,31.8,29.94,West,266,0.0,0.0,95,0.00,,,0.10,1503.00,VWS V14.01,2013-02-03 13:06:00,
2013-02-03 08:11:00,33.2,31.9,29.94,West,266,0.0,0.0,95,0.00,,,0.10,1508.00,VWS V14.01,2013-02-03 13:11:00,
2013-02-03 08:16:00,33.2,31.9,29.94,West,266,0.0,1.0,95,0.00,,,0.10,1522.00,VWS V14.01,2013-02-03 13:16:00,
2013-02-03 08:21:00,33.3,32.0,29.94,West,266,0.0,0.0,95,0.00,,,0.10,1526.00,VWS V14.01,2013-02-03 13:21:00,
2013-02-03 08:26:00,33.5,32.2,29.94,West,266,0.0,0.0,95,0.00,,,0.10,1531.00,VWS V14.01,2013-02-03 13:26:00,
2013-02-03 08:31:00,33.7,32.4,29.94,West,266,0.0,0.0,95,0.00,,,0.10,1529.00,VWS V14.01,2013-02-03 13:31:00,
2013-02-03 08:36:00,33.9,32.6,29.95,West,266,1.0,1.0,95,0.00,,,0.10,1531.00,VWS V14.01,2013-02-03 13:36:00,
2013-02-03 08:41:00,34.1,32.8,29.95,West,266,1.0,1.0,95,0.00,,,0.10,1531.00,VWS V14.01,2013-02-03 13:41:00,
2013-02-03 08:46:00,34.4,33.1,29.95,West,266,1.0,2.0,95,0.00,,,0.10,1524.00,VWS V14.01,2013-02-03 13:46:00,
2013-02-03 08:51:00,34.7,33.2,29.95,West,266,0.0,0.0,94,0.00,,,0.10,1529.00,VWS V14.01,2013-02-03 13:51:00,
2013-02-03 08:56:00,35.0,33.2,29.95,West,281,0.0,1.0,93,0.00,,,0.10,1506.00,VWS V14.01,2013-02-03 13:56:00,
2013-02-03 09:01:00,35.4,33.3,29.95,West,281,0.0,1.0,92,0.00,,,0.10,1526.00,VWS V14.01,2013-02-03 14:01:00,
2013-02-03 09:06:00,35.7,33.6,29.95,West,262,0.0,0.0,92,0.00,,,0.10,1510.00,VWS V14.01,2013-02-03 14:06:00,
2013-02-03 09:11:00,36.2,33.6,29.95,West,270,1.0,1.0,90,0.00,,,0.10,1519.00,VWS V14.01,2013-02-03 14:11:00,
2013-02-03 09:16:00,36.8,33.6,29.95,West,263,2.0,2.0,88,0.00,,,0.10,1535.00,VWS V14.01,2013-02-03 14:16:00,
2013-02-03 09:21:00,37.4,33.6,29.95,WSW,254,4.0,4.0,86,0.00,,,0.10,1540.00,VWS V14.01,2013-02-03 14:21:00,
2013-02-03 09:26:00,37.8,33.1,29.95,WSW,253,5.0,7.0,83,0.00,,,0.10,1524.00,VWS V14.01,2013-02-03 14:26:00,
2013-02-03 09:31:00,38.2,32.6,29.94,West,264,2.0,2.0,80,0.00,,,0.10,1522.00,VWS V14.01,2013-02-03 14:31:00,
2013-02-03 09:36:00,38.8,33.2,29.95,West,273,3.0,4.0,80,0.00,,,0.10,1549.00,VWS V14.01,2013-02-03 14:36:00,
2013-02-03 09:41:00,39.0,32.1,29.95,WNW,299,1.0,2.0,76,0.00,,,0.10,1528.00,VWS V14.01,2013-02-03 14:41:00,
2013-02-03 09:46:00,39.1,32.2,29.95,West,269,2.0,3.0,76,0.00,,,0.10,1524.00,VWS V14.01,2013-02-03 14:46:00,
2013-02-03 09:51:00,39.4,31.1,29.94,NW,311,4.0,4.0,72,0.00,,,0.10,1535.00,VWS V14.01,2013-02-03 14:51:00,
2013-02-03 09:56:00,39.8,31.9,29.94,West,259,6.0,6.0,73,0.00,,,0.10,1552.00,VWS V14.01,2013-02-03 14:56:00,
2013-02-03 10:01:00,39.8,30.5,29.94,WSW,250,4.0,4.0,69,0.00,,,0.10,1557.00,VWS V14.01,2013-02-03 15:01:00,
2013-02-03 10:06:00,40.0,30.7,29.94,WSW,248,3.0,4.0,69,0.00,,,0.10,1556.00,VWS V14.01,2013-02-03 15:06:00,
2013-02-03 10:11:00,40.4,31.0,29.94,SW,235,4.0,6.0,69,0.00,,,0.10,1563.00,VWS V14.01,2013-02-03 15:11:00,
2013-02-03 10:16:00,40.8,30.7,29.94,West,269,0.0,3.0,67,0.00,,,0.10,1571.00,VWS V14.01,2013-02-03 15:16:00,
2013-02-03 10:21:00,41.0,30.9,29.94,SW,236,3.0,3.0,67,0.00,,,0.10,1579.00,VWS V14.01,2013-02-03 15:21:00,
2013-02-03 10:26:00,41.2,30.7,29.94,WSW,254,3.0,8.0,66,0.00,,,0.10,1575.00,VWS V14.01,2013-02-03 15:26:00,
2013-02-03 10:31:00,41.2,31.5,29.94,West,277,0.0,1.0,68,0.00,,,0.10,1584.00,VWS V14.01,2013-02-03 15:31:00,
2013-02-03 10:36:00,41.3,30.1,29.94,NW,310,1.0,3.0,64,0.00,,,0.10,1571.00,VWS V14.01,2013-02-03 15:36:00,
2013-02-03 10:41:00,41.4,29.8,29.94,NW,306,3.0,4.0,63,0.00,,,0.10,1566.00,VWS V14.01,2013-02-03 15:41:00,
2013-02-03 10:46:00,41.5,29.1,29.94,WSW,252,3.0,3.0,61,0.00,,,0.10,1571.00,VWS V14.01,2013-02-03 15:46:00,
2013-02-03 10:51:00,41.5,28.7,29.94,West,281,9.0,13.0,60,0.00,,,0.10,1575.00,VWS V14.01,2013-02-03 15:51:00,
2013-02-03 10:56:00,41.5,28.7,29.94,West,267,6.0,11.0,60,0.00,,,0.10,1573.00,VWS V14.01,2013-02-03 15:56:00,
2013-02-03 11:01:00,41.7,28.4,29.94,WSW,250,1.0,5.0,59,0.00,,,0.10,1582.00,VWS V14.01,2013-02-03 16:01:00,
2013-02-03 11:06:00,42.0,28.3,29.94,West,268,5.0,7.0,58,0.00,,,0.10,1591.00,VWS V14.01,2013-02-03 16:06:00,
2013-02-03 11:11:00,42.2,28.9,29.93,West,279,7.0,10.0,59,0.00,,,0.10,1582.00,VWS V14.01,2013-02-03 16:11:00,
2013-02-03 11:16:00,42.8,29.1,29.93,West,281,3.0,6.0,58,0.00,,,0.10,1621.00,VWS V14.01,2013-02-03 16:16:00,
2013-02-03 11:21:00,42.6,28.5,29.93,West,273,2.0,4.0,57,0.00,,,0.10,1580.00,VWS V14.01,2013-02-03 16:21:00,
2013-02-03 11:26:00,42.8,29.1,29.93,West,259,6.0,9.0,58,0.00,,,0.10,1584.00,VWS V14.01,2013-02-03 16:26:00,
2013-02-03 11:31:00,43.2,29.0,29.93,WSW,250,5.0,7.0,57,0.00,,,0.10,1600.00,VWS V14.01,2013-02-03 16:31:00,
2013-02-03 11:36:00,43.7,28.6,29.93,West,259,5.0,10.0,55,0.00,,,0.10,1614.00,VWS V14.01,2013-02-03 16:36:00,
2013-02-03 11:41:00,43.9,30.1,29.93,WSW,252,3.0,11.0,58,0.00,,,0.10,1622.00,VWS V14.01,2013-02-03 16:41:00,
2013-02-03 11:46:00,43.7,29.0,29.93,SW,224,4.0,7.0,56,0.00,,,0.10,1615.00,VWS V14.01,2013-02-03 16:46:00,
2013-02-03 11:51:00,43.3,28.2,29.92,West,269,4.0,4.0,55,0.00,,,0.10,1603.00,VWS V14.01,2013-02-03 16:51:00,
2013-02-03 11:56:00,43.1,28.9,29.92,WSW,238,10.0,11.0,57,0.00,,,0.10,1598.00,VWS V14.01,2013-02-03 16:56:00,
2013-02-03 12:01:00,42.8,27.8,29.92,West,269,5.0,10.0,55,0.00,,,0.10,1586.00,VWS V14.01,2013-02-03 17:01:00,
2013-02-03 12:06:00,42.7,27.7,29.91,WSW,240,3.0,9.0,55,0.00,,,0.10,1582.00,VWS V14.01,2013-02-03 17:06:00,
2013-02-03 12:11:00,43.2,29.4,29.91,West,259,4.0,4.0,58,0.00,,,0.10,1587.00,VWS V14.01,2013-02-03 17:11:00,
2013-02-03 12:16:00,44.3,30.0,29.91,SSW,205,1.0,4.0,57,0.00,,,0.10,1619.00,VWS V14.01,2013-02-03 17:16:00,
2013-02-03 12:21:00,45.0,29.4,29.91,WSW,258,3.0,10.0,54,0.00,,,0.10,1633.00,VWS V14.01,2013-02-03 17:21:00,
2013-02-03 12:26:00,44.9,28.8,29.90,West,269,2.0,4.0,53,0.00,,,0.10,1633.00,VWS V14.01,2013-02-03 17:26:00,
2013-02-03 12:32:00,45.1,29.0,29.89,SW,221,6.0,11.0,53,0.00,,,0.10,1629.00,VWS V14.01,2013-02-03 17:32:00,
2013-02-03 12:37:00,45.4,29.3,29.89,WSW,250,4.0,9.0,53,0.00,,,0.10,1631.00,VWS V14.01,2013-02-03 17:37:00,
2013-02-03 12:42:00,45.9,29.8,29.89,WNW,292,5.0,7.0,53,0.00,,,0.10,1638.00,VWS V14.01,2013-02-03 17:42:00,
2013-02-03 12:47:00,45.8,29.2,29.88,WSW,254,5.0,10.0,52,0.00,,,0.10,1651.00,VWS V14.01,2013-02-03 17:47:00,
2013-02-03 12:52:00,45.5,29.8,29.87,West,261,5.0,9.0,54,0.00,,,0.10,1635.00,VWS V14.01,2013-02-03 17:52:00,
2013-02-03 12:57:00,44.9,29.3,29.87,SW,225,0.0,1.0,54,0.00,,,0.10,1615.00,VWS V14.01,2013-02-03 17:57:00,
2013-02-03 13:02:00,44.9,29.7,29.87,West,267,4.0,5.0,55,0.00,,,0.10,1628.00,VWS V14.01,2013-02-03 18:02:00,
2013-02-03 13:07:00,45.4,30.6,29.87,SSW,206,2.0,4.0,56,0.00,,,0.10,1619.00,VWS V14.01,2013-02-03 18:07:00,
2013-02-03 13:12:00,46.1,30.4,29.87,West,277,7.0,10.0,54,0.00,,,0.10,1635.00,VWS V14.01,2013-02-03 18:12:00,
2013-02-03 13:17:00,46.6,30.9,29.86,WSW,258,5.0,5.0,54,0.00,,,0.10,1644.00,VWS V14.01,2013-02-03 18:17:00,
2013-02-03 13:22:00,46.8,30.1,29.86,West,262,5.0,5.0,52,0.00,,,0.10,1631.00,VWS V14.01,2013-02-03 18:22:00,
2013-02-03 13:27:00,47.0,29.8,29.86,WNW,290,6.0,7.0,51,0.00,,,0.10,1651.00,VWS V14.01,2013-02-03 18:27:00,
2013-02-03 13:32:00,46.7,29.1,29.86,West,269,2.0,4.0,50,0.00,,,0.10,1649.00,VWS V14.01,2013-02-03 18:32:00,
2013-02-03 13:37:00,46.2,29.6,29.86,South,174,4.0,4.0,52,0.00,,,0.10,1621.00,VWS V14.01,2013-02-03 18:37:00,
2013-02-03 13:42:00,46.3,29.6,29.85,West,262,5.0,5.0,52,0.00,,,0.10,1614.00,VWS V14.01,2013-02-03 18:42:00,
2013-02-03 13:47:00,46.8,29.2,29.85,West,268,11.0,11.0,50,0.00,,,0.10,1629.00,VWS V14.01,2013-02-03 18:47:00,
2013-02-03 13:52:00,47.0,29.3,29.85,SW,227,6.0,7.0,50,0.00,,,0.10,1617.00,VWS V14.01,2013-02-03 18:52:00,
2013-02-03 13:57:00,47.3,29.6,29.84,SSE,157,0.0,2.0,50,0.00,,,0.10,1637.00,VWS V14.01,2013-02-03 18:57:00,
2013-02-03 14:02:00,47.3,29.6,29.84,WSW,244,0.0,2.0,50,0.00,,,0.10,1638.00,VWS V14.01,2013-02-03 19:02:00,
2013-02-03 14:07:00,47.2,29.0,29.84,WSW,240,4.0,4.0,49,0.00,,,0.10,1647.00,VWS V14.01,2013-02-03 19:07:00,
2013-02-03 14:12:00,46.9,28.8,29.84,WNW,290,6.0,9.0,49,0.00,,,0.10,1640.00,VWS V14.01,2013-02-03 19:12:00,
2013-02-03 14:17:00,46.6,28.5,29.84,WSW,251,1.0,3.0,49,0.00,,,0.10,1640.00,VWS V14.01,2013-02-03 19:17:00,
2013-02-03 14:22:00,46.5,29.8,29.84,West,266,0.0,1.0,52,0.00,,,0.10,1629.00,VWS V14.01,2013-02-03 19:22:00,
2013-02-03 14:27:00,46.4,29.3,29.84,West,261,4.0,4.0,51,0.00,,,0.10,1621.00,VWS V14.01,2013-02-03 19:27:00,
2013-02-03 14:32:00,46.3,30.1,29.84,WSW,245,2.0,2.0,53,0.00,,,0.10,1635.00,VWS V14.01,2013-02-03 19:32:00,
2013-02-03 14:37:00,46.2,29.6,29.84,West,277,0.0,1.0,52,0.00,,,0.10,1631.00,VWS V14.01,2013-02-03 19:37:00,
2013-02-03 14:42:00,46.2,30.0,29.84,West,275,3.0,3.0,53,0.00,,,0.10,1629.00,VWS V14.01,2013-02-03 19:42:00,
2013-02-03 14:47:00,46.3,30.1,29.85,SW,227,4.0,9.0,53,0.00,,,0.10,1628.00,VWS V14.01,2013-02-03 19:47:00,
2013-02-03 14:52:00,46.3,29.6,29.85,West,271,9.0,9.0,52,0.00,,,0.10,1631.00,VWS V14.01,2013-02-03 19:52:00,
2013-02-03 14:57:00,46.4,29.8,29.85,SW,234,4.0,7.0,52,0.00,,,0.10,1615.00,VWS V14.01,2013-02-03 19:57:00,
2013-02-03 15:02:00,46.6,29.5,29.85,WSW,254,0.0,4.0,51,0.00,,,0.10,1615.00,VWS V14.01,2013-02-03 20:02:00,
2013-02-03 15:07:00,47.1,29.9,29.85,SSW,210,3.0,3.0,51,0.00,,,0.10,1633.00,VWS V14.01,2013-02-03 20:07:00,
2013-02-03 15:12:00,47.4,30.2,29.85,West,267,4.0,4.0,51,0.00,,,0.10,1626.00,VWS V14.01,2013-02-03 20:12:00,
2013-02-03 15:17:00,47.6,29.9,29.85,WSW,256,2.0,5.0,50,0.00,,,0.10,1644.00,VWS V14.01,2013-02-03 20:17:00,
2013-02-03 15:22:00,47.5,29.8,29.85,West,272,3.0,4.0,50,0.00,,,0.10,1629.00,VWS V14.01,2013-02-03 20:22:00,
2013-02-03 15:27:00,47.5,29.3,29.85,WNW,288,10.0,10.0,49,0.00,,,0.10,1638.00,VWS V14.01,2013-02-03 20:27:00,
2013-02-03 15:32:00,47.4,29.2,29.85,WNW,288,2.0,2.0,49,0.00,,,0.10,1637.00,VWS V14.01,2013-02-03 20:32:00,
2013-02-03 15:37:00,47.4,28.7,29.85,West,280,6.0,7.0,48,0.00,,,0.10,1642.00,VWS V14.01,2013-02-03 20:37:00,
2013-02-03 15:42:00,47.4,28.2,29.86,WSW,246,14.0,14.0,47,0.00,,,0.10,1640.00,VWS V14.01,2013-02-03 20:42:00,
2013-02-03 15:47:00,47.3,28.1,29.86,WSW,255,4.0,7.0,47,0.00,,,0.10,1638.00,VWS V14.01,2013-02-03 20:47:00,
2013-02-03 15:52:00,47.2,27.5,29.86,West,261,3.0,4.0,46,0.00,,,0.10,1635.00,VWS V14.01,2013-02-03 20:52:00,
2013-02-03 15:57:00,47.1,27.9,29.86,West,280,10.0,10.0,47,0.00,,,0.10,1635.00,VWS V14.01,2013-02-03 20:57:00,
2013-02-03 16:02:00,47.0,27.8,29.86,WSW,242,1.0,3.0,47,0.00,,,0.10,1628.00,VWS V14.01,2013-02-03 21:02:00,
2013-02-03 16:07:00,46.9,27.7,29.87,WNW,291,6.0,9.0,47,0.00,,,0.10,1629.00,VWS V14.01,2013-02-03 21:07:00,
2013-02-03 16:12:00,46.8,27.6,29.87,NW,313,3.0,5.0,47,0.00,,,0.10,1610.00,VWS V14.01,2013-02-03 21:12:00,
2013-02-03 16:17:00,47.0,26.8,29.87,West,277,13.0,18.0,45,0.00,,,0.10,1638.00,VWS V14.01,2013-02-03 21:17:00,
2013-02-03 16:22:00,47.2,27.0,29.86,WSW,246,6.0,6.0,45,0.00,,,0.10,1621.00,VWS V14.01,2013-02-03 21:22:00,
2013-02-03 16:27:00,47.1,26.3,29.87,West,274,9.0,11.0,44,0.00,,,0.10,1635.00,VWS V14.01,2013-02-03 21:27:00,
2013-02-03 16:32:00,47.0,26.2,29.87,WSW,250,11.0,11.0,44,0.00,,,0.10,1658.00,VWS V14.01,2013-02-03 21:32:00,
2013-02-03 16:37:00,46.7,26.0,29.87,SSW,200,14.0,14.0,44,0.00,,,0.10,1652.00,VWS V14.01,2013-02-03 21:37:00,
2013-02-03 16:42:00,46.3,25.6,29.87,West,273,2.0,10.0,44,0.00,,,0.10,1640.00,VWS V14.01,2013-02-03 21:42:00,
2013-02-03 16:47:00,46.2,26.0,29.88,SW,221,5.0,5.0,45,0.00,,,0.10,1631.00,VWS V14.01,2013-02-03 21:47:00,
2013-02-03 16:52:00,46.3,26.7,29.88,West,259,1.0,1.0,46,0.00,,,0.10,1638.00,VWS V14.01,2013-02-03 21:52:00,
2013-02-03 16:57:00,46.3,27.2,29.89,WNW,302,2.0,3.0,47,0.00,,,0.10,1647.00,VWS V14.01,2013-02-03 21:57:00,
2013-02-03 17:02:00,46.2,27.1,29.89,WNW,284,2.0,4.0,47,0.00,,,0.10,1651.00,VWS V14.01,2013-02-03 22:02:00,
2013-02-03 17:07:00,46.0,26.9,29.90,NW,317,2.0,3.0,47,0.00,,,0.10,1652.00,VWS V14.01,2013-02-03 22:07:00,
2013-02-03 17:12:00,45.8,26.7,29.90,NW,319,3.0,3.0,47,0.00,,,0.10,1647.00,VWS V14.01,2013-02-03 22:12:00,
2013-02-03 17:17:00,45.8,26.7,29.90,WNW,286,6.0,6.0,47,0.00,,,0.10,1647.00,VWS V14.01,2013-02-03 22:17:00,
2013-02-03 17:22:00,45.7,27.1,29.90,WSW,255,3.0,4.0,48,0.00,,,0.10,1644.00,VWS V14.01,2013-02-03 22:22:00,
2013-02-03 17:27:00,45.6,26.5,29.90,NW,313,2.0,4.0,47,0.00,,,0.10,1652.00,VWS V14.01,2013-02-03 22:27:00,
2013-02-03 17:32:00,45.5,26.5,29.90,NW,306,2.0,3.0,47,0.00,,,0.10,1656.00,VWS V14.01,2013-02-03 22:32:00,
2013-02-03 17:37:00,45.2,26.2,29.90,NW,312,4.0,4.0,47,0.00,,,0.10,1661.00,VWS V14.01,2013-02-03 22:37:00,
2013-02-03 17:42:00,45.0,26.0,29.90,West,275,2.0,10.0,47,0.00,,,0.10,1665.00,VWS V14.01,2013-02-03 22:42:00,
2013-02-03 17:47:00,44.7,25.7,29.90,West,275,3.0,6.0,47,0.00,,,0.10,1670.00,VWS V14.01,2013-02-03 22:47:00,
2013-02-03 17:52:00,44.5,25.5,29.91,West,266,1.0,9.0,47,0.00,,,0.10,1673.00,VWS V14.01,2013-02-03 22:52:00,
2013-02-03 17:57:00,44.4,24.9,29.91,West,262,4.0,5.0,46,0.00,,,0.10,1680.00,VWS V14.01,2013-02-03 22:57:00,
2013-02-03 18:02:00,44.3,25.4,29.91,SW,225,4.0,6.0,47,0.00,,,0.10,1691.00,VWS V14.01,2013-02-03 23:02:00,
2013-02-03 18:07:00,44.1,24.7,29.91,West,267,2.0,10.0,46,0.00,,,0.10,1696.00,VWS V14.01,2013-02-03 23:07:00,
2013-02-03 18:12:00,44.0,25.1,29.91,WSW,257,9.0,9.0,47,0.00,,,0.10,1702.00,VWS V14.01,2013-02-03 23:12:00,
2013-02-03 18:17:00,43.8,24.9,29.91,NW,310,5.0,7.0,47,0.00,,,0.10,1707.00,VWS V14.01,2013-02-03 23:17:00,
2013-02-03 18:22:00,43.8,24.4,29.91,West,271,1.0,5.0,46,0.00,,,0.10,1709.00,VWS V14.01,2013-02-03 23:22:00,
2013-02-03 18:27:00,43.6,24.2,29.92,West,281,2.0,7.0,46,0.00,,,0.10,1709.00,VWS V14.01,2013-02-03 23:27:00,
2013-02-03 18:32:00,43.5,24.1,29.92,NW,317,4.0,11.0,46,0.00,,,0.10,1709.00,VWS V14.01,2013-02-03 23:32:00,
2013-02-03 18:37:00,43.4,24.0,29.93,WSW,246,3.0,4.0,46,0.00,,,0.10,1707.00,VWS V14.01,2013-02-03 23:37:00,
2013-02-03 18:42:00,43.3,23.9,29.93,West,259,2.0,5.0,46,0.00,,,0.10,1705.00,VWS V14.01,2013-02-03 23:42:00,
2013-02-03 18:47:00,43.2,24.4,29.94,WNW,302,4.0,5.0,47,0.00,,,0.10,1705.00,VWS V14.01,2013-02-03 23:47:00,
2013-02-03 18:52:00,43.1,24.3,29.94,WNW,287,7.0,14.0,47,0.00,,,0.10,1703.00,VWS V14.01,2013-02-03 23:52:00,
2013-02-03 18:57:00,42.9,24.1,29.94,WSW,250,5.0,11.0,47,0.00,,,0.10,1700.00,VWS V14.01,2013-02-03 23:57:00,
2013-02-03 19:02:00,42.8,24.0,29.93,West,265,3.0,7.0,47,0.00,,,0.10,1700.00,VWS V14.01,2013-02-04 00:02:00,
2013-02-03 19:07:00,42.6,24.3,29.94,West,269,1.0,4.0,48,0.00,,,0.10,1698.00,VWS V14.01,2013-02-04 00:07:00,
2013-02-03 19:12:00,42.5,24.2,29.95,West,279,7.0,10.0,48,0.00,,,0.10,1696.00,VWS V14.01,2013-02-04 00:12:00,
2013-02-03 19:17:00,42.5,24.2,29.95,NW,313,3.0,7.0,48,0.00,,,0.10,1696.00,VWS V14.01,2013-02-04 00:17:00,
2013-02-03 19:22:00,42.4,24.1,29.95,WNW,283,7.0,10.0,48,0.00,,,0.10,1695.00,VWS V14.01,2013-02-04 00:22:00,
2013-02-03 19:28:00,42.4,24.6,29.95,WNW,283,1.0,4.0,49,0.00,,,0.10,1695.00,VWS V14.01,2013-02-04 00:28:00,
2013-02-03 19:32:00,42.3,25.0,29.95,West,269,4.0,4.0,50,0.00,,,0.10,1693.00,VWS V14.01,2013-02-04 00:32:00,
2013-02-03 19:38:00,42.0,24.2,29.95,West,280,4.0,9.0,49,0.00,,,0.10,1691.00,VWS V14.01,2013-02-04 00:38:00,
2013-02-03 19:43:00,41.9,24.6,29.95,West,265,4.0,15.0,50,0.00,,,0.10,1689.00,VWS V14.01,2013-02-04 00:43:00,
2013-02-03 19:48:00,41.8,24.1,29.95,West,259,10.0,11.0,49,0.00,,,0.10,1688.00,VWS V14.01,2013-02-04 00:48:00,
2013-02-03 19:53:00,41.6,23.9,29.95,West,281,5.0,8.0,49,0.00,,,0.10,1688.00,VWS V14.01,2013-02-04 00:53:00,
2013-02-03 19:58:00,41.5,23.8,29.95,West,278,4.0,11.0,49,0.00,,,0.10,1688.00,VWS V14.01,2013-02-04 00:58:00,
2013-02-03 20:03:00,41.4,23.7,29.96,West,267,3.0,5.0,49,0.00,,,0.10,1686.00,VWS V14.01,2013-02-04 01:03:00,
2013-02-03 20:08:00,41.3,23.1,29.96,WSW,244,6.0,12.0,48,0.00,,,0.10,1684.00,VWS V14.01,2013-02-04 01:08:00,
2013-02-03 20:13:00,41.2,23.0,29.96,WNW,292,4.0,17.0,48,0.00,,,0.10,1682.00,VWS V14.01,2013-02-04 01:13:00,
2013-02-03 20:18:00,41.2,23.0,29.96,WNW,295,9.0,10.0,48,0.00,,,0.10,1684.00,VWS V14.01,2013-02-04 01:18:00,
2013-02-03 20:23:00,41.0,23.3,29.96,West,262,4.0,7.0,49,0.00,,,0.10,1680.00,VWS V14.01,2013-02-04 01:23:00,
2013-02-03 20:28:00,40.9,23.2,29.97,NW,309,2.0,5.0,49,0.00,,,0.10,1680.00,VWS V14.01,2013-02-04 01:28:00,
2013-02-03 20:33:00,40.8,23.1,29.97,WSW,254,7.0,7.0,49,0.00,,,0.10,1679.00,VWS V14.01,2013-02-04 01:33:00,
2013-02-03 20:38:00,40.7,23.5,29.97,WNW,294,3.0,4.0,50,0.00,,,0.10,1677.00,VWS V14.01,2013-02-04 01:38:00,
2013-02-03 20:43:00,40.5,23.3,29.97,NW,324,3.0,6.0,50,0.00,,,0.10,1677.00,VWS V14.01,2013-02-04 01:43:00,
2013-02-03 20:48:00,40.4,23.7,29.97,WSW,244,2.0,4.0,51,0.00,,,0.10,1672.00,VWS V14.01,2013-02-04 01:48:00,
2013-02-03 20:53:00,40.2,23.1,29.97,NW,310,2.0,2.0,50,0.00,,,0.10,1672.00,VWS V14.01,2013-02-04 01:53:00,
2013-02-03 20:58:00,40.1,23.4,29.97,WSW,258,5.0,5.0,51,0.00,,,0.10,1672.00,VWS V14.01,2013-02-04 01:58:00,
2013-02-03 21:03:00,40.0,23.4,29.97,WNW,284,5.0,5.0,51,0.00,,,0.10,1672.00,VWS V14.01,2013-02-04 02:03:00,
2013-02-03 21:08:00,40.0,23.4,29.97,WSW,250,9.0,9.0,51,0.00,,,0.10,1672.00,VWS V14.01,2013-02-04 02:08:00,
2013-02-03 21:13:00,39.8,23.2,29.97,NW,321,2.0,3.0,51,0.00,,,0.10,1670.00,VWS V14.01,2013-02-04 02:13:00,
2013-02-03 21:18:00,39.9,23.3,29.97,West,271,3.0,3.0,51,0.00,,,0.10,1668.00,VWS V14.01,2013-02-04 02:18:00,
2013-02-03 21:23:00,39.9,23.3,29.97,West,268,3.0,3.0,51,0.00,,,0.10,1670.00,VWS V14.01,2013-02-04 02:23:00,
2013-02-03 21:28:00,39.9,23.3,29.97,West,274,3.0,3.0,51,0.00,,,0.10,1670.00,VWS V14.01,2013-02-04 02:28:00,
2013-02-03 21:33:00,39.8,23.2,29.98,West,259,5.0,5.0,51,0.00,,,0.10,1668.00,VWS V14.01,2013-02-04 02:33:00,
2013-02-03 21:38:00,39.8,23.2,29.98,West,261,4.0,4.0,51,0.00,,,0.10,1668.00,VWS V14.01,2013-02-04 02:38:00,
2013-02-03 21:43:00,39.7,23.1,29.99,WSW,252,7.0,7.0,51,0.00,,,0.10,1668.00,VWS V14.01,2013-02-04 02:43:00,
2013-02-03 21:48:00,39.7,23.5,29.98,West,261,0.0,0.0,52,0.00,,,0.10,1668.00,VWS V14.01,2013-02-04 02:48:00,
2013-02-03 21:53:00,39.5,23.4,29.98,West,265,0.0,1.0,52,0.00,,,0.10,1665.00,VWS V14.01,2013-02-04 02:53:00,
2013-02-03 21:58:00,39.3,23.2,29.98,West,265,0.0,1.0,52,0.00,,,0.10,1661.00,VWS V14.01,2013-02-04 02:58:00,
2013-02-03 22:03:00,39.0,22.9,29.98,West,259,2.0,2.0,52,0.00,,,0.10,1661.00,VWS V14.01,2013-02-04 03:03:00,
2013-02-03 22:08:00,38.9,23.2,29.98,West,265,2.0,3.0,53,0.00,,,0.10,1658.00,VWS V14.01,2013-02-04 03:08:00,
2013-02-03 22:13:00,38.7,23.1,29.98,West,280,3.0,4.0,53,0.00,,,0.10,1656.00,VWS V14.01,2013-02-04 03:13:00,
2013-02-03 22:18:00,38.6,23.4,29.98,WNW,289,2.0,3.0,54,0.00,,,0.10,1658.00,VWS V14.01,2013-02-04 03:18:00,
2013-02-03 22:23:00,38.5,23.3,29.98,West,272,3.0,5.0,54,0.00,,,0.10,1658.00,VWS V14.01,2013-02-04 03:23:00,
2013-02-03 22:28:00,38.5,23.3,29.98,WSW,239,7.0,7.0,54,0.00,,,0.10,1658.00,VWS V14.01,2013-02-04 03:28:00,
2013-02-03 22:33:00,38.4,23.2,29.99,WNW,297,2.0,3.0,54,0.00,,,0.10,1656.00,VWS V14.01,2013-02-04 03:33:00,
2013-02-03 22:38:00,38.4,23.2,29.99,West,259,1.0,5.0,54,0.00,,,0.10,1654.00,VWS V14.01,2013-02-04 03:38:00,
2013-02-03 22:43:00,38.2,23.0,29.99,West,271,3.0,6.0,54,0.00,,,0.10,1654.00,VWS V14.01,2013-02-04 03:43:00,
2013-02-03 22:48:00,38.2,23.0,29.99,West,279,2.0,7.0,54,0.00,,,0.10,1654.00,VWS V14.01,2013-02-04 03:48:00,
2013-02-03 22:53:00,38.1,22.9,29.99,NW,305,1.0,3.0,54,0.00,,,0.10,1652.00,VWS V14.01,2013-02-04 03:53:00,
2013-02-03 22:58:00,38.0,23.3,29.98,NW,323,3.0,3.0,55,0.00,,,0.10,1651.00,VWS V14.01,2013-02-04 03:58:00,
2013-02-03 23:03:00,37.9,23.2,29.98,West,275,0.0,1.0,55,0.00,,,0.10,1647.00,VWS V14.01,2013-02-04 04:03:00,
2013-02-03 23:08:00,37.8,23.1,29.98,WSW,253,2.0,5.0,55,0.00,,,0.10,1647.00,VWS V14.01,2013-02-04 04:08:00,
2013-02-03 23:13:00,37.6,22.9,29.99,WSW,254,4.0,7.0,55,0.00,,,0.10,1647.00,VWS V14.01,2013-02-04 04:13:00,
2013-02-03 23:18:00,37.5,22.8,29.99,West,276,0.0,2.0,55,0.00,,,0.10,1645.00,VWS V14.01,2013-02-04 04:18:00,
2013-02-03 23:23:00,37.5,22.8,29.99,WSW,256,3.0,4.0,55,0.00,,,0.10,1645.00,VWS V14.01,2013-02-04 04:23:00,
2013-02-03 23:28:00,37.4,23.1,29.99,WNW,298,2.0,2.0,56,0.00,,,0.10,1644.00,VWS V14.01,2013-02-04 04:28:00,
2013-02-03 23:33:00,37.3,23.5,29.99,West,272,1.0,1.0,57,0.00,,,0.10,1642.00,VWS V14.01,2013-02-04 04:33:00,
2013-02-03 23:38:00,37.2,23.4,29.99,West,272,1.0,2.0,57,0.00,,,0.10,1640.00,VWS V14.01,2013-02-04 04:38:00,
2013-02-03 23:43:00,37.1,23.7,30.00,West,269,1.0,1.0,58,0.00,,,0.10,1640.00,VWS V14.01,2013-02-04 04:43:00,
2013-02-03 23:48:00,37.0,23.6,30.00,West,269,0.0,0.0,58,0.00,,,0.10,1637.00,VWS V14.01,2013-02-04 04:48:00,
2013-02-03 23:53:00,36.8,23.4,29.99,West,259,0.0,0.0,58,0.00,,,0.10,1633.00,VWS V14.01,2013-02-04 04:53:00,
2013-02-03 23:58:00,36.6,23.6,29.99,West,259,0.0,0.0,59,0.00,,,0.10,1631.00,VWS V14.01,2013-02-04 04:58:00,